Forest Springs, Missouri
Current Conditions -  °F | °C
As of 11:55 PM on Thursday 30 Oct 2014 (Local Time) from KIRK Reporting Station
Overcast Overcast  
Wind Chill: 50°   Ceiling: 5500
Heat Index: 50°   Visibility: 10mi
Dew Point: 43°   Wind: 8mph
Humidity: 77%   Direction: 350°N
Pressure: 30.14"   Gusts: NA
Location:  40.1258°N, 92.0041°W
Report Text: KIRK 310455Z AUTO 35007KT 10SM OVC055 10/06 A3014 RMK AO2 SLP211 T01000061
Loading
Personal Weather Stations






























Interactive Weather Map
Tropical Storm Tracking
New forecast layout! Learn more

10-Day Weather Forecast

Advertisements
Track Severe Weather on mobile